Etusivu
METAR-TAF:

METAR-TAF

Lentoasemat :

Lusaka, Sambia

Kenneth Kaundan kansainvälinen lentoasema

Leveyspiiri: 15-19-51S, Pituuspiiri: 028-27-09E, korkeus merenpinnasta: 1152 m

Tämänhetkinen sää

Tämä raportti tehtiin 55 minuuttia sitten, kello 09.00 UTC
Tuuli 13 kn idästä
Lämpötila 28°C
Kosteus 32%
Ilmanpaine 1023 hPa
Näkyvyys: 9000 m
Hajanaisia pilviä 2800 ft:n korkeudessa

METAR: FLKK 220900Z 08013KT 9000 SCT028 28/10 Q1023

Aika: 11:55 (09:55 UTC)

Sääennuste

Tämä raportti tehtiin 29 tuntia ja 55 minuuttia sitten, kello 04.00 UTC
Ennuste voimassa 21. päivästä klo 06 UTC - 22. päivään klo 12 UTC
Tuuli 10 kn idästä
Näkyvyys: 7000 m

TAF: FLKK 210400Z 2106/2212 08010KT 7000 NSC

Säähavainnot ja -ennusteet yli 4000 lentoasemalta (METAR- ja TAF-raportit).

Käytössä olevat sääasemat on merkitty karttaan keltaisilla ja punaisilla pisteillä.

Aseta hiiri pisteen päälle nähdäksesi sääaseman nimen.

Klikkaa sitten nähdäksesi säähavainnot ja -ennusteet.

Kartan vaihtaminen: klikkaa mustalla rastilla varustettuja vihreitä pisteitä, niin voit zoomata sisään; viivalla varustettua vihreää pistettä, niin voit zoomata ulos tai vihreitä nuolia, niin pääset viereisille kartoille.


METAR-TAF: